createdAt,value
2022-12-08T00:01:22.691Z,21.40
2022-12-08T00:03:51.110Z,16.40
2022-12-08T00:06:42.885Z,19.70
2022-12-08T00:09:23.524Z,26.50
2022-12-08T00:12:20.220Z,59.00
2022-12-08T00:14:47.791Z,27.50
2022-12-08T00:17:17.186Z,47.40
2022-12-08T00:19:45.181Z,24.40
2022-12-08T00:22:13.558Z,68.90
2022-12-08T00:24:44.450Z,152.90
2022-12-08T00:27:13.903Z,51.10
2022-12-08T00:29:43.612Z,370.30
2022-12-08T00:32:10.823Z,305.20
2022-12-08T00:34:37.990Z,141.70
2022-12-08T00:37:05.117Z,136.80
2022-12-08T00:39:32.341Z,177.50
2022-12-08T00:42:14.779Z,84.00
2022-12-08T00:44:44.467Z,39.00
2022-12-08T00:47:12.904Z,35.80
2022-12-08T00:49:40.532Z,27.10
2022-12-08T00:52:07.582Z,58.00
2022-12-08T00:54:34.639Z,391.90
2022-12-08T00:57:01.785Z,360.20
2022-12-08T00:59:28.877Z,440.70
2022-12-08T01:01:55.975Z,157.60
2022-12-08T01:04:24.459Z,192.00
2022-12-08T01:06:51.963Z,140.90
2022-12-08T01:09:19.456Z,79.00
2022-12-08T01:11:47.136Z,41.70
2022-12-08T01:14:14.731Z,24.70
2022-12-08T01:16:42.303Z,52.20
2022-12-08T01:19:12.292Z,30.10
2022-12-08T01:21:40.704Z,23.30
2022-12-08T01:24:11.155Z,17.30
2022-12-08T01:26:38.232Z,20.50
2022-12-08T01:29:05.428Z,19.50
2022-12-08T01:31:32.459Z,46.90
2022-12-08T01:33:59.531Z,88.80
2022-12-08T01:36:32.364Z,54.60
2022-12-08T01:39:03.482Z,43.80
2022-12-08T01:41:33.326Z,83.80
2022-12-08T01:44:10.714Z,64.30
2022-12-08T01:46:40.720Z,99.60
2022-12-08T01:49:22.959Z,181.20
2022-12-08T01:51:59.222Z,87.60
2022-12-08T01:54:29.623Z,189.60
2022-12-08T01:57:05.866Z,129.90
2022-12-08T01:59:38.210Z,74.10
2022-12-08T02:02:05.509Z,56.20
2022-12-08T02:04:32.690Z,92.60
2022-12-08T02:07:03.695Z,86.40
2022-12-08T02:09:35.986Z,69.00
2022-12-08T02:12:03.129Z,67.90
2022-12-08T02:14:30.257Z,186.60
2022-12-08T02:17:20.855Z,75.30
2022-12-08T02:20:22.334Z,69.00
2022-12-08T02:23:06.229Z,40.80
2022-12-08T02:25:43.233Z,150.90
2022-12-08T02:28:41.156Z,90.10
2022-12-08T02:31:26.949Z,138.10
2022-12-08T02:33:54.120Z,59.10
2022-12-08T02:36:32.433Z,46.60
2022-12-08T02:38:59.552Z,40.00
2022-12-08T02:41:45.702Z,52.00
2022-12-08T02:44:23.371Z,80.80
2022-12-08T02:47:05.373Z,53.10
2022-12-08T02:49:33.934Z,37.00
2022-12-08T02:52:27.125Z,21.00
2022-12-08T02:54:59.539Z,35.50
2022-12-08T02:57:57.801Z,15.40
2022-12-08T03:00:29.644Z,41.60
2022-12-08T03:03:07.382Z,27.70
2022-12-08T03:06:02.334Z,27.30
2022-12-08T03:08:51.731Z,29.90
2022-12-08T03:11:33.244Z,32.20
2022-12-08T03:14:03.825Z,59.70
2022-12-08T03:16:35.379Z,38.80
2022-12-08T03:19:05.345Z,55.10
2022-12-08T03:21:35.364Z,17.50
2022-12-08T03:24:07.479Z,13.40
2022-12-08T03:26:52.022Z,22.50
2022-12-08T03:29:19.395Z,22.30
2022-12-08T03:31:54.302Z,42.50
2022-12-08T03:34:24.502Z,12.60
2022-12-08T03:36:51.649Z,23.10
2022-12-08T03:39:18.748Z,20.30
2022-12-08T03:41:47.230Z,8.80
2022-12-08T03:44:14.329Z,21.50
2022-12-08T03:46:41.507Z,10.60
2022-12-08T03:49:08.538Z,20.10
2022-12-08T03:51:35.552Z,18.50
2022-12-08T03:54:02.652Z,10.20
2022-12-08T03:56:35.309Z,17.60
2022-12-08T03:59:02.974Z,9.80
2022-12-08T04:01:30.140Z,59.40
2022-12-08T04:03:57.779Z,30.20
2022-12-08T04:06:25.726Z,51.10
2022-12-08T04:08:53.832Z,37.90
2022-12-08T04:11:21.283Z,15.90
2022-12-08T04:13:48.919Z,70.10
2022-12-08T04:16:22.509Z,17.10
2022-12-08T04:18:49.700Z,36.10
2022-12-08T04:21:17.437Z,19.60
2022-12-08T04:23:45.196Z,49.40
2022-12-08T04:26:13.425Z,22.60
2022-12-08T04:28:40.602Z,28.70
2022-12-08T04:31:08.205Z,31.50
2022-12-08T04:33:35.517Z,12.40
2022-12-08T04:36:05.074Z,16.20
2022-12-08T04:38:32.812Z,18.60
2022-12-08T04:41:00.097Z,19.20
2022-12-08T04:43:27.166Z,15.30
2022-12-08T04:45:54.319Z,18.50
2022-12-08T04:48:21.424Z,16.90
2022-12-08T04:50:48.565Z,28.00
2022-12-08T04:53:15.564Z,44.00
2022-12-08T04:55:44.944Z,21.50
2022-12-08T04:58:14.241Z,30.70
2022-12-08T05:00:41.907Z,39.20
2022-12-08T05:03:09.668Z,25.40
2022-12-08T05:05:36.974Z,16.90
2022-12-08T05:08:04.340Z,16.10
2022-12-08T05:10:31.913Z,69.20
2022-12-08T05:12:59.784Z,41.00
2022-12-08T05:15:27.188Z,43.20
2022-12-08T05:17:54.550Z,23.30
2022-12-08T05:20:21.718Z,35.10
2022-12-08T05:22:48.896Z,34.10
2022-12-08T05:25:16.199Z,12.70
2022-12-08T05:27:43.586Z,35.90
2022-12-08T05:30:11.423Z,66.40
2022-12-08T05:32:38.553Z,40.50
2022-12-08T05:35:06.246Z,33.60
2022-12-08T05:37:33.487Z,43.40
2022-12-08T05:40:00.920Z,51.30
2022-12-08T05:42:28.097Z,23.60
2022-12-08T05:44:55.145Z,23.70
2022-12-08T05:47:22.276Z,29.90
2022-12-08T05:49:49.372Z,16.10
2022-12-08T05:52:17.159Z,25.30
2022-12-08T05:54:44.543Z,16.50
2022-12-08T05:57:11.634Z,36.40
2022-12-08T05:59:39.789Z,28.00
2022-12-08T06:02:08.949Z,25.30
2022-12-08T06:04:36.387Z,18.90
2022-12-08T06:07:03.494Z,19.20
2022-12-08T06:09:30.594Z,12.10
2022-12-08T06:11:57.716Z,11.50
2022-12-08T06:14:24.766Z,18.10
2022-12-08T06:16:51.892Z,53.90
2022-12-08T06:19:19.477Z,133.00
2022-12-08T06:21:46.575Z,20.10
2022-12-08T06:24:13.625Z,35.20
2022-12-08T06:26:41.573Z,18.20
2022-12-08T06:29:09.307Z,14.20
2022-12-08T06:31:36.516Z,38.60
2022-12-08T06:34:04.019Z,21.30
2022-12-08T06:36:31.123Z,17.60
2022-12-08T06:38:58.603Z,17.10
2022-12-08T06:41:25.761Z,11.50
2022-12-08T06:43:57.076Z,11.70
2022-12-08T06:46:24.517Z,13.40
2022-12-08T06:48:51.759Z,13.40
2022-12-08T06:51:21.036Z,16.70
2022-12-08T06:53:48.137Z,20.60
2022-12-08T06:56:16.237Z,9.00
2022-12-08T06:58:46.169Z,13.20
2022-12-08T07:01:17.778Z,17.30
2022-12-08T07:03:44.975Z,12.90
2022-12-08T07:06:18.457Z,10.30
2022-12-08T07:08:45.605Z,10.20
2022-12-08T07:11:18.093Z,16.40
2022-12-08T07:13:48.559Z,23.80
2022-12-08T07:16:15.641Z,12.00
2022-12-08T07:18:44.162Z,13.90
2022-12-08T07:21:13.519Z,8.90
2022-12-08T07:23:40.975Z,9.30
2022-12-08T07:26:10.967Z,17.20
2022-12-08T07:28:39.550Z,8.30
2022-12-08T07:31:07.794Z,9.10
2022-12-08T07:33:36.276Z,8.50
2022-12-08T07:36:06.613Z,14.80
2022-12-08T07:38:34.554Z,9.90
2022-12-08T07:41:02.241Z,37.60
2022-12-08T07:43:29.445Z,22.60
2022-12-08T07:45:56.656Z,18.60
2022-12-08T07:48:23.847Z,28.10
2022-12-08T07:50:50.878Z,16.70
2022-12-08T07:53:18.058Z,14.70
2022-12-08T07:55:45.119Z,10.90
2022-12-08T07:58:12.179Z,63.30
2022-12-08T08:00:39.247Z,14.60
2022-12-08T08:03:06.452Z,16.30
2022-12-08T08:05:33.621Z,10.80
2022-12-08T08:08:00.868Z,11.40
2022-12-08T08:10:28.209Z,10.20
2022-12-08T08:12:55.175Z,8.70
2022-12-08T08:15:22.354Z,12.20
2022-12-08T08:17:52.699Z,8.10
2022-12-08T08:20:21.090Z,18.10
2022-12-08T08:22:49.705Z,19.80
2022-12-08T08:25:17.582Z,27.20
2022-12-08T08:27:44.786Z,29.30
2022-12-08T08:30:18.343Z,45.40
2022-12-08T08:32:48.430Z,29.50
2022-12-08T08:35:15.918Z,22.60
2022-12-08T08:37:47.205Z,16.90
2022-12-08T08:40:16.742Z,140.50
2022-12-08T08:42:43.877Z,63.30
2022-12-08T08:45:11.499Z,35.00
2022-12-08T08:47:38.629Z,21.20
2022-12-08T08:50:06.964Z,20.50
2022-12-08T08:52:34.340Z,18.40
2022-12-08T08:55:01.334Z,16.90
2022-12-08T08:57:28.414Z,15.40
2022-12-08T08:59:55.534Z,29.90
2022-12-08T09:02:22.991Z,20.40
2022-12-08T09:04:50.157Z,23.00
2022-12-08T09:07:17.470Z,23.40
2022-12-08T09:09:44.548Z,26.40
2022-12-08T09:12:13.055Z,21.00
2022-12-08T09:14:40.254Z,21.00
2022-12-08T09:17:08.663Z,18.30
2022-12-08T09:19:35.835Z,14.90
2022-12-08T09:22:03.116Z,21.20
2022-12-08T09:24:30.266Z,32.40
2022-12-08T09:26:57.609Z,28.20
2022-12-08T09:29:26.220Z,24.00
2022-12-08T09:31:56.565Z,23.60
2022-12-08T09:34:23.711Z,17.30
2022-12-08T09:36:50.780Z,20.80
2022-12-08T09:39:17.879Z,18.10
2022-12-08T09:41:50.763Z,37.60
2022-12-08T09:44:27.107Z,23.50
2022-12-08T09:46:56.908Z,21.70
2022-12-08T09:49:39.583Z,22.00
2022-12-08T09:52:18.202Z,25.30
2022-12-08T09:54:45.530Z,26.60
2022-12-08T09:57:17.672Z,19.80
2022-12-08T09:59:51.505Z,27.60
2022-12-08T10:02:24.878Z,26.40
2022-12-08T10:04:56.231Z,28.60
2022-12-08T10:07:52.986Z,43.20
2022-12-08T10:10:42.016Z,30.30
2022-12-08T10:13:23.470Z,27.10
2022-12-08T10:16:26.725Z,25.20
2022-12-08T10:19:08.639Z,20.40
2022-12-08T10:21:35.918Z,21.00
2022-12-08T10:24:11.955Z,30.40
2022-12-08T10:26:39.921Z,32.70
2022-12-08T10:29:12.551Z,29.70
2022-12-08T10:31:39.768Z,85.20
2022-12-08T10:34:33.042Z,44.70
2022-12-08T10:37:00.980Z,33.20
2022-12-08T10:39:32.646Z,43.80
2022-12-08T10:42:15.663Z,35.20
2022-12-08T10:45:00.915Z,48.10
2022-12-08T10:47:29.809Z,39.90
2022-12-08T10:50:24.021Z,68.70
2022-12-08T10:53:16.509Z,91.90
2022-12-08T10:55:46.453Z,228.90
2022-12-08T10:58:40.982Z,299.20
2022-12-08T11:01:14.095Z,173.30
2022-12-08T11:04:01.056Z,86.30
2022-12-08T11:06:31.987Z,398.50
2022-12-08T11:09:02.385Z,473.40
2022-12-08T11:11:44.363Z,367.30
2022-12-08T11:14:33.069Z,39.20
2022-12-08T11:17:10.721Z,39.10
2022-12-08T11:19:39.455Z,258.20
2022-12-08T11:22:29.824Z,65.40
2022-12-08T11:25:03.272Z,58.70
2022-12-08T11:27:32.894Z,470.20
2022-12-08T11:30:02.153Z,302.90
2022-12-08T11:32:29.613Z,53.70
2022-12-08T11:35:03.031Z,250.20
2022-12-08T11:37:43.782Z,42.00
2022-12-08T11:40:26.239Z,49.60
2022-12-08T11:43:08.596Z,40.40
2022-12-08T11:45:36.986Z,55.20
2022-12-08T11:48:19.256Z,51.70
2022-12-08T11:50:57.823Z,59.10
2022-12-08T11:53:55.925Z,49.10
2022-12-08T11:56:44.580Z,59.60
2022-12-08T11:59:26.552Z,74.20
2022-12-08T12:01:54.088Z,54.50
2022-12-08T12:04:45.981Z,56.60
2022-12-08T12:07:26.543Z,55.20
2022-12-08T12:10:25.701Z,67.00
2022-12-08T12:13:14.316Z,68.00
2022-12-08T12:16:17.810Z,52.40
2022-12-08T12:18:50.600Z,35.10
2022-12-08T12:21:24.996Z,40.70
2022-12-08T12:23:52.092Z,26.80
2022-12-08T12:26:28.538Z,31.90
2022-12-08T12:29:13.017Z,30.10
2022-12-08T12:31:46.980Z,38.20
2022-12-08T12:34:22.653Z,53.30
2022-12-08T12:36:54.593Z,45.60
2022-12-08T12:39:26.309Z,37.10
2022-12-08T12:41:57.007Z,48.30
2022-12-08T12:44:37.449Z,33.80
2022-12-08T12:47:10.485Z,35.10
2022-12-08T12:49:40.581Z,44.70
2022-12-08T12:52:10.577Z,32.90
2022-12-08T12:54:43.226Z,154.90
2022-12-08T12:57:13.293Z,81.00
2022-12-08T12:59:55.580Z,386.80
2022-12-08T13:02:54.182Z,209.40
2022-12-08T13:05:35.517Z,112.90
2022-12-08T13:08:08.023Z,52.50
2022-12-08T13:10:38.678Z,90.80
2022-12-08T13:13:17.886Z,74.50
2022-12-08T13:15:55.893Z,78.00
2022-12-08T13:18:41.269Z,80.70
2022-12-08T13:21:15.154Z,66.20
2022-12-08T13:23:47.040Z,48.10
2022-12-08T13:26:15.830Z,32.90
2022-12-08T13:29:01.518Z,30.30
2022-12-08T13:31:50.663Z,35.10
2022-12-08T13:34:41.820Z,43.80
2022-12-08T13:37:12.017Z,34.40
2022-12-08T13:39:39.118Z,38.60
2022-12-08T13:42:12.337Z,32.00
2022-12-08T13:45:19.727Z,28.20
2022-12-08T13:48:13.770Z,33.20
2022-12-08T13:52:37.000Z,46.00
2022-12-08T13:54:35.455Z,46.60
2022-12-08T13:57:00.780Z,60.70
2022-12-08T13:59:34.192Z,49.00
2022-12-08T14:02:32.016Z,40.00
2022-12-08T14:07:47.945Z,85.70
2022-12-08T14:10:27.753Z,74.30
2022-12-08T14:13:04.080Z,83.40
2022-12-08T14:15:38.448Z,66.60
2022-12-08T14:18:07.116Z,45.90
2022-12-08T14:20:57.764Z,46.20
2022-12-08T14:23:22.640Z,47.20
2022-12-08T14:25:49.789Z,58.40
2022-12-08T14:28:17.241Z,63.20
2022-12-08T14:30:44.589Z,56.60
2022-12-08T14:33:19.101Z,60.30
2022-12-08T14:35:52.213Z,34.40
2022-12-08T14:38:21.054Z,34.70
2022-12-08T14:41:09.377Z,31.00
2022-12-08T14:43:36.632Z,32.10
2022-12-08T14:46:18.838Z,37.40
2022-12-08T14:48:46.093Z,33.40
2022-12-08T14:51:28.885Z,34.80
2022-12-08T14:53:59.002Z,30.70
2022-12-08T14:56:33.825Z,34.90
2022-12-08T14:59:28.005Z,32.40
2022-12-08T15:02:14.207Z,36.40
2022-12-08T15:04:44.288Z,44.10
2022-12-08T15:07:14.373Z,45.80
2022-12-08T15:09:48.722Z,45.80
2022-12-08T15:12:15.866Z,44.50
2022-12-08T15:14:59.710Z,50.50
2022-12-08T15:17:42.861Z,50.20
2022-12-08T15:20:28.700Z,64.00
2022-12-08T15:22:58.691Z,50.10
2022-12-08T15:25:25.814Z,50.00
2022-12-08T15:27:58.971Z,36.60
2022-12-08T15:30:29.946Z,37.60
2022-12-08T15:32:57.000Z,42.90
2022-12-08T15:35:24.148Z,40.80
2022-12-08T15:37:51.268Z,47.50
2022-12-08T15:40:23.021Z,54.20
2022-12-08T15:42:50.050Z,51.30
2022-12-08T15:45:17.661Z,69.70
2022-12-08T15:47:45.910Z,62.80
2022-12-08T15:50:18.108Z,72.40
2022-12-08T15:52:45.387Z,98.40
2022-12-08T15:55:14.994Z,184.50
2022-12-08T16:00:53.738Z,86.30
2022-12-08T16:09:15.930Z,113.80
2022-12-08T16:17:23.561Z,105.50
2022-12-08T16:19:50.754Z,79.40
2022-12-08T16:25:18.921Z,52.40
2022-12-08T16:28:01.483Z,57.30
2022-12-08T16:30:33.571Z,70.90
2022-12-08T16:33:00.804Z,72.60
2022-12-08T16:35:27.979Z,76.40
2022-12-08T16:37:55.358Z,63.60
2022-12-08T16:40:22.484Z,82.90
2022-12-08T16:42:50.390Z,118.80
2022-12-08T16:45:23.762Z,68.70
2022-12-08T16:47:53.840Z,78.20
2022-12-08T16:50:22.886Z,55.50
2022-12-08T16:52:50.983Z,62.10
2022-12-08T16:55:19.388Z,49.90
2022-12-08T16:57:47.588Z,91.70
2022-12-08T17:00:18.351Z,75.60
2022-12-08T17:02:45.427Z,117.20
2022-12-08T17:05:15.209Z,122.00
2022-12-08T17:07:44.545Z,93.10
2022-12-08T17:10:14.714Z,63.10
2022-12-08T17:12:42.524Z,57.50
2022-12-08T17:15:13.286Z,50.40
2022-12-08T17:17:40.538Z,87.60
2022-12-08T17:20:13.321Z,86.40
2022-12-08T17:22:40.822Z,93.80
2022-12-08T17:25:08.951Z,65.90
2022-12-08T17:27:36.794Z,66.10
2022-12-08T17:30:05.833Z,71.50
2022-12-08T17:32:33.255Z,71.70
2022-12-08T17:35:00.603Z,74.00
2022-12-08T17:37:27.826Z,85.50
2022-12-08T17:39:55.081Z,78.50
2022-12-08T17:42:26.066Z,86.70
2022-12-08T17:44:53.813Z,66.30
2022-12-08T17:47:21.450Z,49.60
2022-12-08T17:49:48.777Z,45.60
2022-12-08T17:52:15.807Z,122.90
2022-12-08T17:54:42.923Z,77.10
2022-12-08T17:57:10.177Z,65.40
2022-12-08T17:59:37.251Z,77.20
2022-12-08T18:02:04.609Z,70.80
2022-12-08T18:04:32.141Z,65.30
2022-12-08T18:07:01.538Z,97.30
2022-12-08T18:09:31.164Z,68.10
2022-12-08T18:11:58.535Z,50.90
2022-12-08T18:14:25.915Z,41.40
2022-12-08T18:16:53.106Z,43.00
2022-12-08T18:19:20.349Z,55.90
2022-12-08T18:21:47.391Z,47.90
2022-12-08T18:24:22.250Z,42.30
2022-12-08T18:26:52.414Z,42.50
2022-12-08T18:29:21.208Z,44.10
2022-12-08T18:31:48.996Z,52.50
2022-12-08T18:34:16.100Z,59.40
2022-12-08T18:36:43.172Z,66.70
2022-12-08T18:39:27.657Z,70.00
2022-12-08T18:41:55.190Z,43.30
2022-12-08T18:44:22.277Z,47.30
2022-12-08T18:46:49.388Z,49.40
2022-12-08T18:49:19.100Z,47.90
2022-12-08T18:51:46.416Z,83.10
2022-12-08T18:54:13.786Z,54.40
2022-12-08T18:56:40.907Z,68.60
2022-12-08T18:59:11.311Z,57.00
2022-12-08T19:01:40.182Z,71.20
2022-12-08T19:06:56.544Z,97.80
2022-12-08T19:09:26.204Z,50.50
2022-12-08T19:11:53.355Z,46.80
2022-12-08T19:14:27.241Z,44.10
2022-12-08T19:16:55.211Z,99.30
2022-12-08T19:19:22.363Z,69.10
2022-12-08T19:21:49.536Z,98.30
2022-12-08T19:24:16.761Z,88.70
2022-12-08T19:26:44.130Z,82.90
2022-12-08T19:29:12.192Z,53.60
2022-12-08T19:31:40.333Z,41.30
2022-12-08T19:34:09.281Z,42.40
2022-12-08T19:37:37.905Z,38.70
2022-12-08T19:40:24.481Z,50.10
2022-12-08T19:43:10.342Z,34.10
2022-12-08T19:45:38.175Z,44.70
2022-12-08T19:48:05.649Z,34.30
2022-12-08T19:50:39.116Z,47.00
2022-12-08T19:53:07.425Z,105.90
2022-12-08T19:55:34.476Z,96.20
2022-12-08T19:58:02.182Z,166.90
2022-12-08T20:00:31.176Z,110.00
2022-12-08T20:02:59.777Z,118.10
2022-12-08T20:05:26.937Z,76.60
2022-12-08T20:07:55.908Z,186.30
2022-12-08T20:10:29.507Z,58.90
2022-12-08T20:13:17.071Z,151.80
2022-12-08T20:15:45.057Z,57.50
2022-12-08T20:18:14.668Z,52.50
2022-12-08T20:20:43.105Z,65.10
2022-12-08T20:23:10.860Z,99.00
2022-12-08T20:25:39.883Z,170.90
2022-12-08T20:28:07.626Z,64.10
2022-12-08T20:30:37.804Z,42.50
2022-12-08T20:33:04.914Z,42.30
2022-12-08T20:35:32.012Z,31.00
2022-12-08T20:37:59.145Z,46.00
2022-12-08T20:40:26.342Z,44.00
2022-12-08T20:42:53.439Z,46.80
2022-12-08T20:45:20.594Z,147.50
2022-12-08T20:47:47.795Z,157.60
2022-12-08T20:50:15.206Z,233.50
2022-12-08T20:52:42.447Z,177.20
2022-12-08T20:55:10.009Z,157.10
2022-12-08T20:57:37.374Z,91.90
2022-12-08T21:00:06.807Z,67.40
2022-12-08T21:02:34.459Z,48.30
2022-12-08T21:05:01.886Z,38.70
2022-12-08T21:07:29.548Z,38.50
2022-12-08T21:09:56.944Z,36.80
2022-12-08T21:12:24.255Z,35.50
2022-12-08T21:14:51.499Z,33.60
2022-12-08T21:17:18.725Z,38.60
2022-12-08T21:19:45.917Z,37.00
2022-12-08T21:22:14.024Z,46.90
2022-12-08T21:24:41.281Z,54.70
2022-12-08T21:27:08.450Z,50.80
2022-12-08T21:29:35.915Z,44.10
2022-12-08T21:32:03.253Z,51.70
2022-12-08T21:34:31.924Z,43.60
2022-12-08T21:36:59.419Z,45.00
2022-12-08T21:39:26.809Z,49.40
2022-12-08T21:42:12.762Z,38.90
2022-12-08T21:44:40.487Z,45.70
2022-12-08T21:47:08.355Z,40.30
2022-12-08T21:49:35.633Z,34.10
2022-12-08T21:52:02.967Z,45.10
2022-12-08T21:54:30.208Z,45.30
2022-12-08T21:56:57.493Z,114.30
2022-12-08T21:59:24.570Z,39.30
2022-12-08T22:01:52.066Z,45.30
2022-12-08T22:04:21.519Z,43.00
2022-12-08T22:06:49.144Z,37.10
2022-12-08T22:09:16.426Z,44.90
2022-12-08T22:11:44.105Z,43.60
2022-12-08T22:14:14.838Z,50.10
2022-12-08T22:16:42.885Z,53.10
2022-12-08T22:19:10.386Z,42.00
2022-12-08T22:21:38.445Z,43.70
2022-12-08T22:24:06.339Z,40.80
2022-12-08T22:26:33.994Z,48.00
2022-12-08T22:29:02.070Z,50.60
2022-12-08T22:31:29.466Z,43.20
2022-12-08T22:33:59.381Z,44.70
2022-12-08T22:36:28.309Z,47.80
2022-12-08T22:38:55.894Z,46.50
2022-12-08T22:41:23.469Z,61.50
2022-12-08T22:43:51.433Z,38.20
2022-12-08T22:46:23.358Z,39.30
2022-12-08T22:48:51.858Z,46.00
2022-12-08T22:51:19.477Z,47.10
2022-12-08T22:53:47.240Z,44.40
2022-12-08T22:56:16.226Z,40.80
2022-12-08T22:58:44.517Z,36.60
2022-12-08T23:01:30.136Z,50.50
2022-12-08T23:03:59.358Z,30.00
2022-12-08T23:06:28.001Z,40.40
2022-12-08T23:08:56.038Z,44.40
2022-12-08T23:11:26.310Z,48.10
2022-12-08T23:13:53.659Z,44.60
2022-12-08T23:16:21.068Z,96.30
2022-12-08T23:18:48.380Z,61.30
2022-12-08T23:21:18.133Z,47.20
2022-12-08T23:23:45.669Z,41.10
2022-12-08T23:26:26.917Z,54.40
2022-12-08T23:28:54.495Z,58.10
2022-12-08T23:31:22.269Z,47.20
2022-12-08T23:33:49.906Z,47.10
2022-12-08T23:36:18.870Z,55.60
2022-12-08T23:38:46.462Z,68.80
2022-12-08T23:41:15.703Z,46.70
2022-12-08T23:43:50.302Z,42.00
2022-12-08T23:46:20.304Z,35.50
2022-12-08T23:48:48.116Z,37.30
2022-12-08T23:51:16.324Z,35.80
2022-12-08T23:53:44.971Z,39.40
2022-12-08T23:56:15.564Z,49.40
2022-12-08T23:58:43.640Z,44.20
